Un Pendik — TCOD2 — position and weather

sailwx.info

Track history (hours):
 
Tides and Currents Weather Stations Pressure Air Temp Water Temp Dewpoint Dewpoint Depression Visibility Wind Speed Wind Dir Waves Ship Positions

Un Pendik

Last reported at 2015-Aug-28 16:07 UTC. Time now 2015-Aug-31 00:39 UTC.
Position N 36°22' E 023°23'.

Length 193 m; draft 6.5 m.

Type: Ship (hazmat cat A). MMSI: 271000792.

Date/timePositionNaut miles runAvg speedWind from/ knotsBaromVisibWave heightAir tempDewpointWater temp
2015-Aug-28 16:07N 36°22' E 023°23'1119.8
2015-Aug-28 15:33N 36°21' E 023°36'4919.5
2015-Aug-28 13:04N 36°15' E 024°36'1019.7
2015-Aug-28 12:33N 36°13' E 024°48'2019.6
2015-Aug-28 11:33N 36°11' E 025°13'2020.0
2015-Aug-28 10:33N 36°10' E 025°37'2020.0
2015-Aug-28 09:33N 36°09' E 026°03'1919.5
2015-Aug-28 08:33N 36°07' E 026°26'2619.7
2015-Aug-28 07:13N 36°02' E 026°58'3219.4
2015-Aug-28 05:33N 35°52' E 027°36'2219.8
2015-Aug-28 04:25N 35°49' E 028°04'9720.0
2015-Aug-27 23:34N 35°53' E 030°04'2019.7
2015-Aug-27 22:34N 35°54' E 030°28'102 2.0
2015-Aug-25 20:07N 35°46' E 028°22'1119.7
2015-Aug-25 19:33N 35°45' E 028°08'2618.9
2015-Aug-25 18:12N 35°47' E 027°37'3520.2
2015-Aug-25 16:27N 36°01' E 026°57'2120.0
2015-Aug-25 15:25N 36°06' E 026°32'1719.9
2015-Aug-25 14:33N 36°08' E 026°11'2019.7
2015-Aug-25 13:33N 36°09' E 025°47'1919.4
2015-Aug-25 12:33N 36°10' E 025°23'2019.6
2015-Aug-25 11:33N 36°12' E 024°58'41018.6
2015-Aug-24 13:31N 40°34' E 018°16'  
2015-Aug-21 07:17N 36°14' E 024°37'1520.1
2015-Aug-21 06:33N 36°13' E 024°55'2020.0
2015-Aug-21 05:33N 36°11' E 025°19'2020.1
2015-Aug-21 04:33N 36°09' E 025°45'2020.4
2015-Aug-21 03:33N 36°08' E 026°10'2120.5
2015-Aug-21 02:33N 36°06' E 026°35'2020.4
2015-Aug-21 01:33N 36°01' E 026°59'2019.8
2015-Aug-21 00:33N 35°55' E 027°23'1919.0
2015-Aug-20 23:34N 35°49' E 027°45'2120.3
2015-Aug-20 22:30N 35°50' E 028°11'11920.1
2015-Aug-20 16:33N 35°54' E 030°38'2019.7
2015-Aug-20 15:34N 35°55' E 031°03'137 3.2
2015-Aug-18 20:33N 35°49' E 028°14'2119.7
2015-Aug-18 19:31N 35°49' E 027°49'2020.6
2015-Aug-18 18:33N 35°55' E 027°25'2020.6
2015-Aug-18 17:34N 36°01' E 027°01'2020.1
2015-Aug-18 16:33N 36°05' E 026°37'  
Track history (hours):
 
Tides and Currents Weather Stations Pressure Air Temp Water Temp Dewpoint Dewpoint Depression Visibility Wind Speed Wind Dir Waves Ship Positions

Un Pendik

Last reported at 2015-Aug-28 16:07 UTC. Time now 2015-Aug-31 00:39 UTC.
Position N 36°22' E 023°23'.

Length 193 m; draft 6.5 m.

Type: Ship (hazmat cat A). MMSI: 271000792.

Date/timePositionNaut miles runAvg speedWind from/ knotsBaromVisibWave heightAir tempDewpointWater temp
2015-Aug-28 16:07N 36°22' E 023°23'1119.8
2015-Aug-28 15:33N 36°21' E 023°36'4919.5
2015-Aug-28 13:04N 36°15' E 024°36'1019.7
2015-Aug-28 12:33N 36°13' E 024°48'2019.6
2015-Aug-28 11:33N 36°11' E 025°13'2020.0
2015-Aug-28 10:33N 36°10' E 025°37'2020.0
2015-Aug-28 09:33N 36°09' E 026°03'1919.5
2015-Aug-28 08:33N 36°07' E 026°26'2619.7
2015-Aug-28 07:13N 36°02' E 026°58'3219.4
2015-Aug-28 05:33N 35°52' E 027°36'2219.8
2015-Aug-28 04:25N 35°49' E 028°04'9720.0
2015-Aug-27 23:34N 35°53' E 030°04'2019.7
2015-Aug-27 22:34N 35°54' E 030°28'102 2.0
2015-Aug-25 20:07N 35°46' E 028°22'1119.7
2015-Aug-25 19:33N 35°45' E 028°08'2618.9
2015-Aug-25 18:12N 35°47' E 027°37'3520.2
2015-Aug-25 16:27N 36°01' E 026°57'2120.0
2015-Aug-25 15:25N 36°06' E 026°32'1719.9
2015-Aug-25 14:33N 36°08' E 026°11'2019.7
2015-Aug-25 13:33N 36°09' E 025°47'1919.4
2015-Aug-25 12:33N 36°10' E 025°23'2019.6
2015-Aug-25 11:33N 36°12' E 024°58'41018.6
2015-Aug-24 13:31N 40°34' E 018°16'  
2015-Aug-21 07:17N 36°14' E 024°37'1520.1
2015-Aug-21 06:33N 36°13' E 024°55'2020.0
2015-Aug-21 05:33N 36°11' E 025°19'2020.1
2015-Aug-21 04:33N 36°09' E 025°45'2020.4
2015-Aug-21 03:33N 36°08' E 026°10'2120.5
2015-Aug-21 02:33N 36°06' E 026°35'2020.4
2015-Aug-21 01:33N 36°01' E 026°59'2019.8
2015-Aug-21 00:33N 35°55' E 027°23'1919.0
2015-Aug-20 23:34N 35°49' E 027°45'2120.3
2015-Aug-20 22:30N 35°50' E 028°11'11920.1
2015-Aug-20 16:33N 35°54' E 030°38'2019.7
2015-Aug-20 15:34N 35°55' E 031°03'137 3.2
2015-Aug-18 20:33N 35°49' E 028°14'2119.7
2015-Aug-18 19:31N 35°49' E 027°49'2020.6
2015-Aug-18 18:33N 35°55' E 027°25'2020.6
2015-Aug-18 17:34N 36°01' E 027°01'2020.1
2015-Aug-18 16:33N 36°05' E 026°37'  

Dump ship's entire track history